Terminal Aerodrome Forecast
Issued by NWS

Home | Current Version | Previous Version | Text Only | Print | Product List | Glossary On
Versions: 1 2 3 4 5 6 7 8 9 10 11 12 13 14 15 16 17 18 19 20 21
463
FTUS43 KIND 211720
TAFHUF
TAF
KHUF 211720Z 2118/2218 20011KT P6SM SCT200
     FM212300 18006KT P6SM BKN200
     FM220700 12004KT 2SM BR VCSH BKN035
     FM220900 10004KT 4SM BR VCSH OVC035
     FM221200 07006KT 3SM BR VCSH OVC015
     FM221400 07007KT 1SM -SHRA BR OVC008=

USA.gov is the U.S. government's official web portal to all federal, state and local government web resources and services.